sensor_id;sensor_type;location;lat;lon;timestamp;pressure;altitude;pressure_sealevel;temperature
65738;BMP280;52478;51.844;6.582;2024-03-08T00:01:13;101603.03;;;17.89
65738;BMP280;52478;51.844;6.582;2024-03-08T00:03:41;101601.22;;;17.86
65738;BMP280;52478;51.844;6.582;2024-03-08T00:06:08;101592.41;;;17.87
65738;BMP280;52478;51.844;6.582;2024-03-08T00:08:34;101590.13;;;17.86
65738;BMP280;52478;51.844;6.582;2024-03-08T00:11:01;101577.53;;;17.85
65738;BMP280;52478;51.844;6.582;2024-03-08T00:13:28;101584.94;;;17.79
65738;BMP280;52478;51.844;6.582;2024-03-08T00:15:55;101578.47;;;17.82
65738;BMP280;52478;51.844;6.582;2024-03-08T00:18:22;101586.59;;;17.71
65738;BMP280;52478;51.844;6.582;2024-03-08T00:20:49;101581.44;;;17.78
65738;BMP280;52478;51.844;6.582;2024-03-08T00:23:16;101586.19;;;17.78
65738;BMP280;52478;51.844;6.582;2024-03-08T00:25:42;101581.59;;;17.75
65738;BMP280;52478;51.844;6.582;2024-03-08T00:28:09;101581.91;;;17.63
65738;BMP280;52478;51.844;6.582;2024-03-08T00:30:40;101585.16;;;17.61
65738;BMP280;52478;51.844;6.582;2024-03-08T00:33:07;101573.22;;;17.55
65738;BMP280;52478;51.844;6.582;2024-03-08T00:35:34;101566.66;;;17.53
65738;BMP280;52478;51.844;6.582;2024-03-08T00:38:00;101573.72;;;17.54
65738;BMP280;52478;51.844;6.582;2024-03-08T00:40:27;101575.41;;;17.51
65738;BMP280;52478;51.844;6.582;2024-03-08T00:42:54;101579.34;;;17.59
65738;BMP280;52478;51.844;6.582;2024-03-08T00:45:20;101575.06;;;17.44
65738;BMP280;52478;51.844;6.582;2024-03-08T00:47:48;101575.81;;;17.44
65738;BMP280;52478;51.844;6.582;2024-03-08T00:50:15;101572.75;;;17.42
65738;BMP280;52478;51.844;6.582;2024-03-08T00:52:41;101562.56;;;17.48
65738;BMP280;52478;51.844;6.582;2024-03-08T00:55:08;101550.25;;;17.49
65738;BMP280;52478;51.844;6.582;2024-03-08T00:57:35;101548.16;;;17.44
65738;BMP280;52478;51.844;6.582;2024-03-08T01:00:05;101544.72;;;17.49
65738;BMP280;52478;51.844;6.582;2024-03-08T01:02:34;101549.25;;;17.52
65738;BMP280;52478;51.844;6.582;2024-03-08T01:05:02;101538.19;;;17.52
65738;BMP280;52478;51.844;6.582;2024-03-08T01:07:31;101542.41;;;17.48
65738;BMP280;52478;51.844;6.582;2024-03-08T01:09:58;101544.31;;;17.42
65738;BMP280;52478;51.844;6.582;2024-03-08T01:12:26;101546.81;;;17.40
65738;BMP280;52478;51.844;6.582;2024-03-08T01:14:52;101534.47;;;17.26
65738;BMP280;52478;51.844;6.582;2024-03-08T01:17:19;101537.84;;;17.30
65738;BMP280;52478;51.844;6.582;2024-03-08T01:19:45;101528.56;;;17.33
65738;BMP280;52478;51.844;6.582;2024-03-08T01:22:13;101526.94;;;17.41
65738;BMP280;52478;51.844;6.582;2024-03-08T01:24:39;101528.47;;;17.42
65738;BMP280;52478;51.844;6.582;2024-03-08T01:27:06;101520.56;;;17.35
65738;BMP280;52478;51.844;6.582;2024-03-08T01:29:34;101512.84;;;17.25
65738;BMP280;52478;51.844;6.582;2024-03-08T01:32:01;101507.47;;;17.21
65738;BMP280;52478;51.844;6.582;2024-03-08T01:34:27;101499.25;;;17.27
65738;BMP280;52478;51.844;6.582;2024-03-08T01:36:54;101501.88;;;17.30
65738;BMP280;52478;51.844;6.582;2024-03-08T01:39:23;101503.19;;;17.20
65738;BMP280;52478;51.844;6.582;2024-03-08T01:41:49;101500.03;;;17.27
65738;BMP280;52478;51.844;6.582;2024-03-08T01:44:16;101496.81;;;17.29
65738;BMP280;52478;51.844;6.582;2024-03-08T01:46:43;101500.78;;;17.13
65738;BMP280;52478;51.844;6.582;2024-03-08T01:49:10;101490.88;;;17.21
65738;BMP280;52478;51.844;6.582;2024-03-08T01:51:38;101496.00;;;17.14
65738;BMP280;52478;51.844;6.582;2024-03-08T01:54:06;101493.16;;;17.08
65738;BMP280;52478;51.844;6.582;2024-03-08T01:56:37;101496.28;;;17.16
65738;BMP280;52478;51.844;6.582;2024-03-08T01:59:05;101496.13;;;17.19
65738;BMP280;52478;51.844;6.582;2024-03-08T02:01:33;101489.53;;;17.17
65738;BMP280;52478;51.844;6.582;2024-03-08T02:03:59;101486.38;;;17.09
65738;BMP280;52478;51.844;6.582;2024-03-08T02:06:26;101492.59;;;17.04
65738;BMP280;52478;51.844;6.582;2024-03-08T02:08:52;101494.69;;;17.09
65738;BMP280;52478;51.844;6.582;2024-03-08T02:11:19;101497.47;;;17.09
65738;BMP280;52478;51.844;6.582;2024-03-08T02:13:47;101487.06;;;17.04
65738;BMP280;52478;51.844;6.582;2024-03-08T02:16:20;101480.56;;;17.07
65738;BMP280;52478;51.844;6.582;2024-03-08T02:18:46;101488.78;;;17.16
65738;BMP280;52478;51.844;6.582;2024-03-08T02:21:16;101480.84;;;17.09
65738;BMP280;52478;51.844;6.582;2024-03-08T02:23:43;101471.41;;;17.16
65738;BMP280;52478;51.844;6.582;2024-03-08T02:26:10;101472.75;;;17.20
65738;BMP280;52478;51.844;6.582;2024-03-08T02:28:36;101475.91;;;17.13
65738;BMP280;52478;51.844;6.582;2024-03-08T02:31:04;101472.00;;;17.05
65738;BMP280;52478;51.844;6.582;2024-03-08T02:33:33;101471.59;;;16.98
65738;BMP280;52478;51.844;6.582;2024-03-08T02:36:00;101465.84;;;17.01
65738;BMP280;52478;51.844;6.582;2024-03-08T02:38:27;101472.91;;;17.02
65738;BMP280;52478;51.844;6.582;2024-03-08T02:40:54;101461.31;;;16.98
65738;BMP280;52478;51.844;6.582;2024-03-08T02:43:21;101454.88;;;16.92
65738;BMP280;52478;51.844;6.582;2024-03-08T02:45:50;101452.13;;;16.92
65738;BMP280;52478;51.844;6.582;2024-03-08T02:48:18;101452.00;;;16.72
65738;BMP280;52478;51.844;6.582;2024-03-08T02:50:46;101453.84;;;16.90
65738;BMP280;52478;51.844;6.582;2024-03-08T02:53:13;101444.59;;;16.93
65738;BMP280;52478;51.844;6.582;2024-03-08T02:55:41;101433.44;;;16.87
65738;BMP280;52478;51.844;6.582;2024-03-08T02:58:08;101445.94;;;16.83
65738;BMP280;52478;51.844;6.582;2024-03-08T03:00:35;101438.03;;;16.90
65738;BMP280;52478;51.844;6.582;2024-03-08T03:03:02;101442.59;;;16.93
65738;BMP280;52478;51.844;6.582;2024-03-08T03:05:29;101439.53;;;16.91
65738;BMP280;52478;51.844;6.582;2024-03-08T03:07:56;101439.84;;;16.93
65738;BMP280;52478;51.844;6.582;2024-03-08T03:10:23;101440.84;;;16.81
65738;BMP280;52478;51.844;6.582;2024-03-08T03:12:51;101443.34;;;16.79
65738;BMP280;52478;51.844;6.582;2024-03-08T03:15:18;101429.31;;;16.68
65738;BMP280;52478;51.844;6.582;2024-03-08T03:17:46;101426.28;;;16.81
65738;BMP280;52478;51.844;6.582;2024-03-08T03:20:13;101427.63;;;16.71
65738;BMP280;52478;51.844;6.582;2024-03-08T03:22:47;101427.13;;;16.72
65738;BMP280;52478;51.844;6.582;2024-03-08T03:25:17;101420.69;;;16.75
65738;BMP280;52478;51.844;6.582;2024-03-08T03:27:48;101420.25;;;16.82
65738;BMP280;52478;51.844;6.582;2024-03-08T03:30:16;101420.88;;;17.01
65738;BMP280;52478;51.844;6.582;2024-03-08T03:32:47;101415.59;;;16.88
65738;BMP280;52478;51.844;6.582;2024-03-08T03:35:13;101416.84;;;16.87
65738;BMP280;52478;51.844;6.582;2024-03-08T03:37:40;101420.09;;;16.71
65738;BMP280;52478;51.844;6.582;2024-03-08T03:40:08;101423.44;;;16.75
65738;BMP280;52478;51.844;6.582;2024-03-08T03:42:35;101411.50;;;16.69
65738;BMP280;52478;51.844;6.582;2024-03-08T03:45:04;101413.38;;;16.63
65738;BMP280;52478;51.844;6.582;2024-03-08T03:47:32;101410.91;;;16.65
65738;BMP280;52478;51.844;6.582;2024-03-08T03:49:58;101396.13;;;16.68
65738;BMP280;52478;51.844;6.582;2024-03-08T03:52:27;101413.97;;;16.67
65738;BMP280;52478;51.844;6.582;2024-03-08T03:54:53;101405.38;;;16.65
65738;BMP280;52478;51.844;6.582;2024-03-08T03:57:20;101395.00;;;16.60
65738;BMP280;52478;51.844;6.582;2024-03-08T03:59:48;101397.75;;;16.60
65738;BMP280;52478;51.844;6.582;2024-03-08T04:02:16;101389.38;;;16.55
65738;BMP280;52478;51.844;6.582;2024-03-08T04:04:44;101389.06;;;16.53
65738;BMP280;52478;51.844;6.582;2024-03-08T04:07:10;101390.69;;;16.59
65738;BMP280;52478;51.844;6.582;2024-03-08T04:09:37;101387.41;;;16.46
65738;BMP280;52478;51.844;6.582;2024-03-08T04:12:04;101391.63;;;16.56
65738;BMP280;52478;51.844;6.582;2024-03-08T04:14:31;101386.22;;;16.62
65738;BMP280;52478;51.844;6.582;2024-03-08T04:16:58;101385.19;;;16.59
65738;BMP280;52478;51.844;6.582;2024-03-08T04:19:24;101379.25;;;16.52
65738;BMP280;52478;51.844;6.582;2024-03-08T04:21:53;101381.94;;;16.61
65738;BMP280;52478;51.844;6.582;2024-03-08T04:24:19;101387.38;;;16.55
65738;BMP280;52478;51.844;6.582;2024-03-08T04:26:46;101381.53;;;16.68
65738;BMP280;52478;51.844;6.582;2024-03-08T04:29:12;101384.22;;;16.62
65738;BMP280;52478;51.844;6.582;2024-03-08T04:31:39;101375.66;;;16.60
65738;BMP280;52478;51.844;6.582;2024-03-08T04:34:06;101376.97;;;16.50
65738;BMP280;52478;51.844;6.582;2024-03-08T04:36:33;101367.63;;;16.62
65738;BMP280;52478;51.844;6.582;2024-03-08T04:39:01;101371.47;;;16.65
65738;BMP280;52478;51.844;6.582;2024-03-08T04:41:28;101375.28;;;16.67
65738;BMP280;52478;51.844;6.582;2024-03-08T04:43:55;101373.38;;;16.73
65738;BMP280;52478;51.844;6.582;2024-03-08T04:46:23;101365.38;;;16.61
65738;BMP280;52478;51.844;6.582;2024-03-08T04:48:48;101363.34;;;16.61
65738;BMP280;52478;51.844;6.582;2024-03-08T04:51:15;101365.53;;;16.57
65738;BMP280;52478;51.844;6.582;2024-03-08T04:53:41;101359.72;;;16.55
65738;BMP280;52478;51.844;6.582;2024-03-08T04:56:09;101357.34;;;16.48
65738;BMP280;52478;51.844;6.582;2024-03-08T04:58:36;101352.47;;;16.43
65738;BMP280;52478;51.844;6.582;2024-03-08T05:01:02;101356.09;;;16.49
65738;BMP280;52478;51.844;6.582;2024-03-08T05:03:29;101354.25;;;16.46
65738;BMP280;52478;51.844;6.582;2024-03-08T05:05:56;101352.78;;;16.45
65738;BMP280;52478;51.844;6.582;2024-03-08T05:08:22;101344.72;;;16.47
65738;BMP280;52478;51.844;6.582;2024-03-08T05:10:49;101348.16;;;16.42
65738;BMP280;52478;51.844;6.582;2024-03-08T05:13:16;101342.50;;;16.46
65738;BMP280;52478;51.844;6.582;2024-03-08T05:15:44;101344.38;;;16.40
65738;BMP280;52478;51.844;6.582;2024-03-08T05:18:10;101338.84;;;16.40
65738;BMP280;52478;51.844;6.582;2024-03-08T05:20:39;101342.63;;;16.42
65738;BMP280;52478;51.844;6.582;2024-03-08T05:23:06;101351.59;;;16.37
65738;BMP280;52478;51.844;6.582;2024-03-08T05:25:33;101339.78;;;16.37
65738;BMP280;52478;51.844;6.582;2024-03-08T05:28:00;101336.66;;;16.29
65738;BMP280;52478;51.844;6.582;2024-03-08T05:30:28;101336.00;;;16.34
65738;BMP280;52478;51.844;6.582;2024-03-08T05:32:54;101335.22;;;16.34
65738;BMP280;52478;51.844;6.582;2024-03-08T05:35:22;101332.56;;;16.39
65738;BMP280;52478;51.844;6.582;2024-03-08T05:37:50;101337.69;;;16.46
65738;BMP280;52478;51.844;6.582;2024-03-08T05:40:16;101341.53;;;16.34
65738;BMP280;52478;51.844;6.582;2024-03-08T05:42:42;101334.34;;;16.42
65738;BMP280;52478;51.844;6.582;2024-03-08T05:45:09;101339.53;;;16.49
65738;BMP280;52478;51.844;6.582;2024-03-08T05:47:38;101334.97;;;16.75
65738;BMP280;52478;51.844;6.582;2024-03-08T05:50:06;101336.19;;;16.89
65738;BMP280;52478;51.844;6.582;2024-03-08T05:52:36;101330.63;;;17.03
65738;BMP280;52478;51.844;6.582;2024-03-08T05:55:03;101331.78;;;16.97
65738;BMP280;52478;51.844;6.582;2024-03-08T05:57:32;101325.28;;;17.00
65738;BMP280;52478;51.844;6.582;2024-03-08T05:59:58;101327.88;;;17.03
65738;BMP280;52478;51.844;6.582;2024-03-08T06:02:25;101327.34;;;17.19
65738;BMP280;52478;51.844;6.582;2024-03-08T06:04:53;101323.75;;;17.13
65738;BMP280;52478;51.844;6.582;2024-03-08T06:07:19;101328.88;;;17.20
65738;BMP280;52478;51.844;6.582;2024-03-08T06:09:46;101326.56;;;17.33
65738;BMP280;52478;51.844;6.582;2024-03-08T06:12:13;101319.59;;;17.03
65738;BMP280;52478;51.844;6.582;2024-03-08T06:14:44;101321.81;;;17.19
65738;BMP280;52478;51.844;6.582;2024-03-08T06:17:10;101328.00;;;16.65
65738;BMP280;52478;51.844;6.582;2024-03-08T06:19:37;101316.72;;;16.83
65738;BMP280;52478;51.844;6.582;2024-03-08T06:22:05;101313.28;;;16.88
65738;BMP280;52478;51.844;6.582;2024-03-08T06:24:31;101313.69;;;16.52
65738;BMP280;52478;51.844;6.582;2024-03-08T06:26:58;101311.78;;;16.73
65738;BMP280;52478;51.844;6.582;2024-03-08T06:29:24;101300.25;;;16.89
65738;BMP280;52478;51.844;6.582;2024-03-08T06:31:51;101315.56;;;17.04
65738;BMP280;52478;51.844;6.582;2024-03-08T06:34:18;101316.28;;;17.19
65738;BMP280;52478;51.844;6.582;2024-03-08T06:36:45;101313.75;;;17.36
65738;BMP280;52478;51.844;6.582;2024-03-08T06:39:13;101311.53;;;17.54
65738;BMP280;52478;51.844;6.582;2024-03-08T06:41:39;101308.63;;;17.63
65738;BMP280;52478;51.844;6.582;2024-03-08T06:44:06;101309.84;;;17.62
65738;BMP280;52478;51.844;6.582;2024-03-08T06:46:33;101300.31;;;17.63
65738;BMP280;52478;51.844;6.582;2024-03-08T06:49:00;101307.91;;;17.68
65738;BMP280;52478;51.844;6.582;2024-03-08T06:51:26;101305.06;;;17.63
65738;BMP280;52478;51.844;6.582;2024-03-08T06:53:53;101305.84;;;17.63
65738;BMP280;52478;51.844;6.582;2024-03-08T06:56:20;101307.91;;;17.68
65738;BMP280;52478;51.844;6.582;2024-03-08T06:58:47;101318.53;;;17.75
65738;BMP280;52478;51.844;6.582;2024-03-08T07:01:14;101307.56;;;17.80
65738;BMP280;52478;51.844;6.582;2024-03-08T07:03:42;101302.47;;;17.79
65738;BMP280;52478;51.844;6.582;2024-03-08T07:06:10;101306.31;;;17.81
65738;BMP280;52478;51.844;6.582;2024-03-08T07:08:36;101306.31;;;17.81
65738;BMP280;52478;51.844;6.582;2024-03-08T07:11:03;101304.88;;;17.86
65738;BMP280;52478;51.844;6.582;2024-03-08T07:13:31;101307.88;;;17.88
65738;BMP280;52478;51.844;6.582;2024-03-08T07:15:57;101301.25;;;18.00
65738;BMP280;52478;51.844;6.582;2024-03-08T07:18:26;101314.03;;;17.97
65738;BMP280;52478;51.844;6.582;2024-03-08T07:20:55;101299.41;;;17.97
65738;BMP280;52478;51.844;6.582;2024-03-08T07:23:21;101298.72;;;18.02
65738;BMP280;52478;51.844;6.582;2024-03-08T07:26:02;101299.25;;;17.80
65738;BMP280;52478;51.844;6.582;2024-03-08T07:28:28;101299.88;;;17.50
65738;BMP280;52478;51.844;6.582;2024-03-08T07:30:57;101296.91;;;17.54
65738;BMP280;52478;51.844;6.582;2024-03-08T07:33:37;101295.44;;;17.78
65738;BMP280;52478;51.844;6.582;2024-03-08T07:36:04;101296.00;;;17.82
65738;BMP280;52478;51.844;6.582;2024-03-08T07:38:31;101286.16;;;17.61
65738;BMP280;52478;51.844;6.582;2024-03-08T07:40:57;101283.16;;;17.59
65738;BMP280;52478;51.844;6.582;2024-03-08T07:43:24;101288.88;;;17.56
65738;BMP280;52478;51.844;6.582;2024-03-08T07:45:50;101286.09;;;17.56
65738;BMP280;52478;51.844;6.582;2024-03-08T07:48:19;101298.63;;;17.51
65738;BMP280;52478;51.844;6.582;2024-03-08T07:50:46;101284.63;;;17.60
65738;BMP280;52478;51.844;6.582;2024-03-08T07:53:15;101286.16;;;17.61
65738;BMP280;52478;51.844;6.582;2024-03-08T07:55:41;101289.34;;;17.34
65738;BMP280;52478;51.844;6.582;2024-03-08T07:58:10;101281.19;;;17.65
65738;BMP280;52478;51.844;6.582;2024-03-08T08:00:37;101273.97;;;17.33
65738;BMP280;52478;51.844;6.582;2024-03-08T08:03:03;101275.03;;;17.56
65738;BMP280;52478;51.844;6.582;2024-03-08T08:05:32;101278.41;;;17.65
65738;BMP280;52478;51.844;6.582;2024-03-08T08:08:00;101269.47;;;17.75
65738;BMP280;52478;51.844;6.582;2024-03-08T08:10:28;101260.69;;;17.77
65738;BMP280;52478;51.844;6.582;2024-03-08T08:12:54;101267.84;;;17.63
65738;BMP280;52478;51.844;6.582;2024-03-08T08:15:22;101257.50;;;17.64
65738;BMP280;52478;51.844;6.582;2024-03-08T08:17:48;101254.03;;;17.69
65738;BMP280;52478;51.844;6.582;2024-03-08T08:20:17;101253.84;;;17.72
65738;BMP280;52478;51.844;6.582;2024-03-08T08:22:45;101249.97;;;17.45
65738;BMP280;52478;51.844;6.582;2024-03-08T08:25:13;101248.94;;;17.42
65738;BMP280;52478;51.844;6.582;2024-03-08T08:27:41;101249.25;;;17.44
65738;BMP280;52478;51.844;6.582;2024-03-08T08:30:09;101238.84;;;17.59
65738;BMP280;52478;51.844;6.582;2024-03-08T08:32:36;101250.63;;;17.54
65738;BMP280;52478;51.844;6.582;2024-03-08T08:35:05;101232.88;;;17.46
65738;BMP280;52478;51.844;6.582;2024-03-08T08:37:33;101229.72;;;17.53
65738;BMP280;52478;51.844;6.582;2024-03-08T08:40:03;101228.19;;;17.52
65738;BMP280;52478;51.844;6.582;2024-03-08T08:42:34;101237.31;;;17.38
65738;BMP280;52478;51.844;6.582;2024-03-08T08:45:00;101223.06;;;17.45
65738;BMP280;52478;51.844;6.582;2024-03-08T08:47:29;101228.81;;;17.62
65738;BMP280;52478;51.844;6.582;2024-03-08T08:49:56;101229.56;;;17.62
65738;BMP280;52478;51.844;6.582;2024-03-08T08:52:22;101216.72;;;17.59
65738;BMP280;52478;51.844;6.582;2024-03-08T08:54:49;101217.03;;;17.66
65738;BMP280;52478;51.844;6.582;2024-03-08T08:57:17;101216.56;;;17.68
65738;BMP280;52478;51.844;6.582;2024-03-08T08:59:44;101216.28;;;17.46
65738;BMP280;52478;51.844;6.582;2024-03-08T09:02:11;101216.72;;;17.59
65738;BMP280;52478;51.844;6.582;2024-03-08T09:04:38;101211.72;;;17.63
65738;BMP280;52478;51.844;6.582;2024-03-08T09:07:04;101204.66;;;17.62
65738;BMP280;52478;51.844;6.582;2024-03-08T09:09:31;101204.16;;;17.63
65738;BMP280;52478;51.844;6.582;2024-03-08T09:11:58;101203.13;;;17.61
65738;BMP280;52478;51.844;6.582;2024-03-08T09:14:26;101193.13;;;17.69
65738;BMP280;52478;51.844;6.582;2024-03-08T09:16:52;101190.97;;;17.78
65738;BMP280;52478;51.844;6.582;2024-03-08T09:19:19;101196.41;;;17.67
65738;BMP280;52478;51.844;6.582;2024-03-08T09:21:45;101185.13;;;17.71
65738;BMP280;52478;51.844;6.582;2024-03-08T09:24:12;101184.81;;;17.69
65738;BMP280;52478;51.844;6.582;2024-03-08T09:26:38;101184.19;;;17.54
65738;BMP280;52478;51.844;6.582;2024-03-08T09:29:08;101182.72;;;17.59
65738;BMP280;52478;51.844;6.582;2024-03-08T09:31:37;101173.16;;;17.60
65738;BMP280;52478;51.844;6.582;2024-03-08T09:34:04;101165.75;;;17.51
65738;BMP280;52478;51.844;6.582;2024-03-08T09:36:33;101162.63;;;17.63
65738;BMP280;52478;51.844;6.582;2024-03-08T09:39:00;101160.69;;;17.69
65738;BMP280;52478;51.844;6.582;2024-03-08T09:41:27;101151.91;;;17.71
65738;BMP280;52478;51.844;6.582;2024-03-08T09:43:55;101153.03;;;17.59
65738;BMP280;52478;51.844;6.582;2024-03-08T09:46:24;101143.47;;;17.60
65738;BMP280;52478;51.844;6.582;2024-03-08T09:48:53;101142.00;;;17.64
65738;BMP280;52478;51.844;6.582;2024-03-08T09:51:21;101135.16;;;17.60
65738;BMP280;52478;51.844;6.582;2024-03-08T09:53:53;101133.44;;;17.63
65738;BMP280;52478;51.844;6.582;2024-03-08T09:56:20;101139.75;;;17.63
65738;BMP280;52478;51.844;6.582;2024-03-08T09:58:48;101136.16;;;17.57
65738;BMP280;52478;51.844;6.582;2024-03-08T10:01:40;101124.31;;;17.57
65738;BMP280;52478;51.844;6.582;2024-03-08T10:04:08;101125.91;;;17.63
65738;BMP280;52478;51.844;6.582;2024-03-08T10:06:35;101123.50;;;17.76
65738;BMP280;52478;51.844;6.582;2024-03-08T10:09:02;101130.81;;;17.79
65738;BMP280;52478;51.844;6.582;2024-03-08T10:11:31;101111.06;;;17.66
65738;BMP280;52478;51.844;6.582;2024-03-08T10:13:59;101111.38;;;17.73
65738;BMP280;52478;51.844;6.582;2024-03-08T10:16:27;101111.59;;;17.70
65738;BMP280;52478;51.844;6.582;2024-03-08T10:18:56;101109.69;;;17.56
65738;BMP280;52478;51.844;6.582;2024-03-08T10:21:24;101107.94;;;17.53
65738;BMP280;52478;51.844;6.582;2024-03-08T10:23:50;101109.69;;;17.56
65738;BMP280;52478;51.844;6.582;2024-03-08T10:26:17;101096.47;;;17.40
65738;BMP280;52478;51.844;6.582;2024-03-08T10:28:47;101091.34;;;17.53
65738;BMP280;52478;51.844;6.582;2024-03-08T10:31:14;101100.84;;;17.52
65738;BMP280;52478;51.844;6.582;2024-03-08T10:33:41;101097.88;;;17.56
65738;BMP280;52478;51.844;6.582;2024-03-08T10:36:08;101084.59;;;17.60
65738;BMP280;52478;51.844;6.582;2024-03-08T10:38:38;101084.69;;;17.45
65738;BMP280;52478;51.844;6.582;2024-03-08T10:41:05;101080.69;;;17.46
65738;BMP280;52478;51.844;6.582;2024-03-08T10:43:40;101070.94;;;17.56
65738;BMP280;52478;51.844;6.582;2024-03-08T10:46:23;101072.78;;;17.59
65738;BMP280;52478;51.844;6.582;2024-03-08T10:48:55;101079.59;;;17.63
65738;BMP280;52478;51.844;6.582;2024-03-08T10:51:25;101075.38;;;17.68
65738;BMP280;52478;51.844;6.582;2024-03-08T10:53:55;101070.06;;;17.70
65738;BMP280;52478;51.844;6.582;2024-03-08T10:56:23;101051.09;;;17.32
65738;BMP280;52478;51.844;6.582;2024-03-08T10:58:53;101054.75;;;17.44
65738;BMP280;52478;51.844;6.582;2024-03-08T11:01:20;101056.25;;;17.45
65738;BMP280;52478;51.844;6.582;2024-03-08T11:03:47;101047.47;;;17.46
65738;BMP280;52478;51.844;6.582;2024-03-08T11:06:23;101042.06;;;17.57
65738;BMP280;52478;51.844;6.582;2024-03-08T11:08:57;101045.63;;;17.63
65738;BMP280;52478;51.844;6.582;2024-03-08T11:11:25;101054.03;;;17.49
65738;BMP280;52478;51.844;6.582;2024-03-08T11:13:56;101038.22;;;17.49
65738;BMP280;52478;51.844;6.582;2024-03-08T11:16:43;101048.59;;;17.34
65738;BMP280;52478;51.844;6.582;2024-03-08T11:19:24;101033.88;;;17.43
65738;BMP280;52478;51.844;6.582;2024-03-08T11:21:57;101035.91;;;17.48
65738;BMP280;52478;51.844;6.582;2024-03-08T11:24:25;101025.03;;;17.39
65738;BMP280;52478;51.844;6.582;2024-03-08T11:26:56;101021.66;;;17.29
65738;BMP280;52478;51.844;6.582;2024-03-08T11:29:32;101012.63;;;17.34
65738;BMP280;52478;51.844;6.582;2024-03-08T11:32:04;101010.13;;;17.36
65738;BMP280;52478;51.844;6.582;2024-03-08T11:34:31;101004.06;;;17.32
65738;BMP280;52478;51.844;6.582;2024-03-08T11:36:58;100991.94;;;17.24
65738;BMP280;52478;51.844;6.582;2024-03-08T11:39:26;100996.56;;;17.38
65738;BMP280;52478;51.844;6.582;2024-03-08T11:41:54;100990.50;;;17.34
65738;BMP280;52478;51.844;6.582;2024-03-08T11:44:20;100982.28;;;17.45
65738;BMP280;52478;51.844;6.582;2024-03-08T11:46:47;100998.19;;;17.50
65738;BMP280;52478;51.844;6.582;2024-03-08T11:49:13;100980.97;;;17.35
65738;BMP280;52478;51.844;6.582;2024-03-08T11:51:41;100974.44;;;17.38
65738;BMP280;52478;51.844;6.582;2024-03-08T11:54:11;100978.22;;;17.35
65738;BMP280;52478;51.844;6.582;2024-03-08T11:56:39;100977.03;;;17.47
65738;BMP280;52478;51.844;6.582;2024-03-08T11:59:11;100972.19;;;17.37
65738;BMP280;52478;51.844;6.582;2024-03-08T12:01:38;100976.22;;;17.41
65738;BMP280;52478;51.844;6.582;2024-03-08T12:04:05;100972.69;;;17.41
65738;BMP280;52478;51.844;6.582;2024-03-08T12:06:37;100963.91;;;17.42
65738;BMP280;52478;51.844;6.582;2024-03-08T12:09:08;100974.97;;;17.42
65738;BMP280;52478;51.844;6.582;2024-03-08T12:11:35;100946.91;;;17.24
65738;BMP280;52478;51.844;6.582;2024-03-08T12:14:03;100939.09;;;17.22
65738;BMP280;52478;51.844;6.582;2024-03-08T12:16:31;100942.72;;;17.34
65738;BMP280;52478;51.844;6.582;2024-03-08T12:18:59;100943.28;;;17.43
65738;BMP280;52478;51.844;6.582;2024-03-08T12:21:27;100927.19;;;17.42
65738;BMP280;52478;51.844;6.582;2024-03-08T12:24:05;100943.53;;;17.40
65738;BMP280;52478;51.844;6.582;2024-03-08T12:26:35;100923.41;;;17.45
65738;BMP280;52478;51.844;6.582;2024-03-08T12:29:20;100925.09;;;17.31
65738;BMP280;52478;51.844;6.582;2024-03-08T12:31:48;100916.53;;;17.29
65738;BMP280;52478;51.844;6.582;2024-03-08T12:34:15;100921.41;;;17.40
65738;BMP280;52478;51.844;6.582;2024-03-08T12:36:45;100924.59;;;17.33
65738;BMP280;52478;51.844;6.582;2024-03-08T12:39:14;100900.97;;;17.37
65738;BMP280;52478;51.844;6.582;2024-03-08T12:41:42;100901.28;;;17.39
65738;BMP280;52478;51.844;6.582;2024-03-08T12:44:09;100897.97;;;17.41
65738;BMP280;52478;51.844;6.582;2024-03-08T12:46:38;100890.41;;;17.36
65738;BMP280;52478;51.844;6.582;2024-03-08T12:49:07;100882.34;;;17.32
65738;BMP280;52478;51.844;6.582;2024-03-08T12:51:34;100883.31;;;17.29
65738;BMP280;52478;51.844;6.582;2024-03-08T12:54:02;100900.97;;;17.37
65738;BMP280;52478;51.844;6.582;2024-03-08T12:56:29;100874.09;;;17.43
65738;BMP280;52478;51.844;6.582;2024-03-08T12:58:57;100873.69;;;17.56
65738;BMP280;52478;51.844;6.582;2024-03-08T13:01:24;100871.66;;;17.56
65738;BMP280;52478;51.844;6.582;2024-03-08T13:03:52;100861.81;;;17.50
65738;BMP280;52478;51.844;6.582;2024-03-08T13:06:19;100856.31;;;17.55
65738;BMP280;52478;51.844;6.582;2024-03-08T13:08:47;100853.13;;;17.62
65738;BMP280;52478;51.844;6.582;2024-03-08T13:11:14;100851.81;;;17.58
65738;BMP280;52478;51.844;6.582;2024-03-08T13:13:40;100844.47;;;17.55
65738;BMP280;52478;51.844;6.582;2024-03-08T13:16:08;100826.03;;;17.41
65738;BMP280;52478;51.844;6.582;2024-03-08T13:18:34;100826.59;;;17.50
65738;BMP280;52478;51.844;6.582;2024-03-08T13:21:02;100815.31;;;17.54
65738;BMP280;52478;51.844;6.582;2024-03-08T13:23:32;100829.94;;;17.60
65738;BMP280;52478;51.844;6.582;2024-03-08T13:25:58;100827.44;;;17.62
65738;BMP280;52478;51.844;6.582;2024-03-08T13:28:25;100831.44;;;17.61
65738;BMP280;52478;51.844;6.582;2024-03-08T13:30:59;100819.59;;;17.60
65738;BMP280;52478;51.844;6.582;2024-03-08T13:33:26;100824.19;;;17.63
65738;BMP280;52478;51.844;6.582;2024-03-08T13:35:53;100818.13;;;17.59
65738;BMP280;52478;51.844;6.582;2024-03-08T13:38:21;100814.38;;;17.62
65738;BMP280;52478;51.844;6.582;2024-03-08T13:40:48;100803.00;;;17.60
65738;BMP280;52478;51.844;6.582;2024-03-08T13:43:16;100802.47;;;17.56
65738;BMP280;52478;51.844;6.582;2024-03-08T13:45:43;100804.47;;;17.50
65738;BMP280;52478;51.844;6.582;2024-03-08T13:48:10;100800.44;;;17.51
65738;BMP280;52478;51.844;6.582;2024-03-08T13:50:38;100790.41;;;17.48
65738;BMP280;52478;51.844;6.582;2024-03-08T13:53:05;100784.59;;;17.52
65738;BMP280;52478;51.844;6.582;2024-03-08T13:55:32;100787.09;;;17.50
65738;BMP280;52478;51.844;6.582;2024-03-08T13:58:00;100774.75;;;17.45
65738;BMP280;52478;51.844;6.582;2024-03-08T14:00:27;100775.00;;;17.47